Latest Coastal Weather Observations for Lockhart River

IDQ60701

Issued at 4:21 am EST Sunday 2 August 2015 (issued every 10 minutes, with the page automatically refreshed every 10 minutes)

About coastal observations | Map of coastal stations | Coastal observations for QLD | Marine services | Other Formats
Station Details ID: 028008 Name: LOCKHART RIVER AIRPORT Lat: -12.79 Lon: 143.30 Height: 18.5 m
Data from the previous 72 hours. | See also: Recent months at Lockhart River
Date/Time
EST
Temp

°C
Wind Pressure Rain
since 9am
mm
Weather Cloud Vis
km
Sea
Height
m
Swell
Dir
 
Speed
knots
Gust
knots
hPa Trend Height
m
Period
s
Dir
02/04:00am 22.3 SE 9 14 1015.6 - 0.8 - Partly cloudy - - - - -
02/03:30am 22.1 SE 7 10 1015.4 - 0.8 - Partly cloudy - - - - -
02/03:00am 22.5 SE 12 17 1015.2 - 0.8 - - - - - - -
02/02:30am 22.2 SE 11 17 1015.4 - 0.8 - - - - - - -
02/02:00am 22.5 ESE 10 14 1015.8 - 0.8 - Partly cloudy - - - - -
02/01:30am 22.5 SE 12 18 1015.9 - 0.8 - - - - - - -
02/01:00am 22.6 SE 11 18 1016.2 - 0.8 - - - - - - -
02/12:30am 22.5 SE 9 12 1016.2 - 0.8 - Partly cloudy - - - - -
02/12:00am 23.0 SE 9 13 1016.2 - 0.8 - Partly cloudy - - - - -
 
Date/Time
EST
Temp

°C
Wind Pressure Rain
since 9am
mm
Weather Cloud Vis
km
Sea
Height
m
Swell
Dir
 
Speed
knots
Gust
knots
hPa Trend Height
m
Period
s
Dir
01/11:30pm 23.3 SE 13 20 1016.5 - 0.8 - Cloudy - - - - -
01/11:00pm 23.1 SE 12 17 1016.4 - 0.8 - Cloudy - - - - -
01/10:30pm 23.2 SE 14 20 1016.5 - 0.8 - Partly cloudy - - - - -
01/10:00pm 22.6 SE 9 15 1016.4 - 0.8 - Partly cloudy - - - - -
01/09:30pm 21.9 SE 7 11 1016.5 - 0.8 - Partly cloudy - - - - -
01/09:00pm 21.8 SSE 10 14 1015.9 - 0.8 - Partly cloudy - - - - -
01/08:30pm 22.2 SSE 8 11 1015.6 - 0.8 - Partly cloudy - - - - -
01/08:00pm 21.9 SE 7 10 1015.3 - 0.8 - Partly cloudy - - - - -
01/07:30pm 21.6 ESE 6 9 1015.0 - 0.8 - Partly cloudy - - - - -
01/07:00pm 21.6 SE 7 10 1015.1 - 0.8 - Partly cloudy - - - - -
01/06:30pm 22.8 SE 12 20 1014.9 - 0.6 - Partly cloudy - - - - -
01/06:00pm 22.8 SE 8 15 1014.5 - 0.6 - Partly cloudy - - - - -
01/05:30pm 23.1 SE 12 16 1014.5 - 0.6 - Partly cloudy - - - - -
01/05:00pm 24.4 SE 12 18 1014.2 - 0.4 - Partly cloudy - - - - -
01/04:30pm 24.2 SE 12 20 1014.1 - 0.4 - Partly cloudy - - - - -
01/04:00pm 25.1 SE 14 21 1014.0 - 0.4 - Partly cloudy - - - - -
01/03:30pm 24.6 ESE 13 20 1014.0 - 0.4 - Partly cloudy - - - - -
01/03:00pm 24.1 ESE 13 21 1013.9 - 0.4 - Partly cloudy - - - - -
01/02:30pm 23.9 ESE 8 12 1014.3 - 0.4 - Partly cloudy - - - - -
01/02:00pm 23.9 ESE 13 21 1014.7 - 0.4 - Partly cloudy - - - - -
01/01:30pm 24.0 ESE 12 17 1015.0 - 0.4 - Partly cloudy - - - - -
01/01:00pm 23.5 ESE 12 19 1015.4 - 0.2 - Partly cloudy - - - - -
01/12:30pm 24.0 ESE 14 21 1015.9 - 0.2 - Cloudy - - - - -
01/12:00pm 24.8 ESE 13 18 1016.0 - 0.0 - Cloudy - - - - -
01/11:30am 24.6 ESE 14 21 1016.6 - 0.0 - Partly cloudy - - - - -
01/11:00am 24.4 SE 12 16 1016.8 - 0.0 - Partly cloudy - - - - -
01/10:30am 24.6 ESE 11 17 1016.8 - 0.0 - Partly cloudy - - - - -
01/10:00am 24.4 ESE 14 20 1017.0 - 0.0 - Partly cloudy - - - - -
01/09:30am 24.1 ESE 12 22 1016.9 - 0.0 - Partly cloudy - - - - -
01/09:00am 23.0 SE 10 13 1016.6 - 3.0 Fine Mostly cloudy 12 - - - -
01/08:30am 22.5 ESE 9 13 1016.5 - 3.0 - Cloudy - - - - -
01/08:00am 21.5 SE 9 13 1016.1 - 3.0 - Partly cloudy - - - - -
01/07:30am 21.3 SE 10 16 1015.7 - 3.0 - Partly cloudy - - - - -
01/07:00am 21.3 ESE 4 5 1015.3 - 2.0 - Partly cloudy - - - - -
01/06:30am 21.1 ESE 5 7 1015.3 - 2.0 - Partly cloudy - - - - -
01/06:15am 21.0 ESE 8 12 1015.1 - 2.0 - Partly cloudy - - - - -
01/06:00am 20.9 ESE 10 18 1015.0 - 2.0 - Partly cloudy - - - - -
01/05:30am 21.4 SE 7 9 1014.8 - 0.2 - Partly cloudy - - - - -
01/05:24am 21.5 SE 8 11 1014.9 - 0.2 - Partly cloudy - - - - -
01/05:00am 21.5 E 8 17 1015.1 - 0.2 - Partly cloudy - - - - -
01/04:50am 21.6 ESE 8 15 1015.0 - 0.2 - Partly cloudy - - - - -
01/04:30am 21.8 SE 10 14 1014.9 - 0.2 - Partly cloudy - - - - -
01/04:01am 21.9 ESE 7 11 1014.7 - 0.2 - Partly cloudy - - - - -
01/04:00am 21.9 ESE 7 11 1014.7 - 0.2 - Partly cloudy - - - - -
01/03:30am 21.4 SE 7 10 1014.9 - 0.2 - Partly cloudy - - - - -
01/03:00am 21.0 S 3 4 1014.9 - 0.0 - Partly cloudy - - - - -
01/02:30am 21.2 SSE 4 5 1015.3 - 0.0 - Partly cloudy - - - - -
01/02:00am 21.8 SE 8 12 1015.7 - 0.0 - Partly cloudy - - - - -
01/01:30am 22.3 SE 8 20 1015.9 - 0.0 - Partly cloudy - - - - -
01/01:00am 22.0 SE 6 8 1016.1 - 0.0 - Partly cloudy - - - - -
01/12:30am 22.1 SE 7 10 1016.3 - 0.0 - Partly cloudy - - - - -
01/12:00am 22.5 SE 11 15 1016.3 - 0.0 - - - - - - -
 
Date/Time
EST
Temp

°C
Wind Pressure Rain
since 9am
mm
Weather Cloud Vis
km
Sea
Height
m
Swell
Dir
 
Speed
knots
Gust
knots
hPa Trend Height
m
Period
s
Dir
31/11:30pm 22.4 SE 8 13 1016.6 - 0.0 - Partly cloudy - - - - -
31/11:00pm 22.2 SE 8 11 1016.6 - 0.0 - Partly cloudy - - - - -
31/10:30pm 22.3 SE 9 14 1016.5 - 0.0 - - - - - - -
31/10:00pm 22.4 SE 10 14 1016.4 - 0.0 - - - - - - -
31/09:30pm 22.8 SE 11 16 1016.2 - 0.0 - Partly cloudy - - - - -
31/09:00pm 23.2 SE 11 15 1016.1 - 0.0 - Partly cloudy - - - - -
31/08:30pm 23.3 SE 15 21 1015.8 - 0.0 - Partly cloudy - - - - -
31/08:00pm 23.2 ESE 9 14 1015.7 - 0.0 - Partly cloudy - - - - -
31/07:30pm 22.9 ESE 8 13 1015.4 - 0.0 - Partly cloudy - - - - -
31/07:00pm 23.0 ESE 9 14 1015.1 - 0.0 - Partly cloudy - - - - -
31/06:30pm 23.3 ESE 12 18 1014.8 - 0.0 - Partly cloudy - - - - -
31/06:00pm 23.4 ESE 13 19 1014.6 - 0.0 - - - - - - -
31/05:30pm 24.2 ESE 14 21 1014.5 - 0.0 - - - - - - -
31/05:00pm 24.7 ESE 13 21 1014.2 - 0.0 - - - - - - -
31/04:30pm 25.2 ESE 16 23 1014.1 - 0.0 - Partly cloudy - - - - -
31/04:00pm 25.2 ESE 14 22 1014.2 - 0.0 - Partly cloudy - - - - -
31/03:30pm 25.5 ESE 13 20 1014.3 - 0.0 - Partly cloudy - - - - -
31/03:00pm 25.9 ESE 14 22 1014.5 - 0.0 Fine Partly cloudy 30 - - - -
31/02:35pm 25.8 ESE 16 26 1014.9 - 0.0 - Partly cloudy - - - - -
31/02:30pm 26.1 ESE 16 22 1014.9 - 0.0 - - - - - - -
31/02:00pm 26.4 ESE 13 20 1015.1 - 0.0 - Partly cloudy - - - - -
31/01:30pm 26.5 ESE 15 24 1015.6 - 0.0 - Partly cloudy - - - - -
31/01:00pm 26.8 SE 16 24 1016.2 - 0.0 - Partly cloudy - - - - -
31/12:39pm 26.8 SE 15 25 1016.5 - 0.0 - Partly cloudy - - - - -
31/12:30pm 26.0 SE 18 25 1016.7 - 0.0 - Partly cloudy - - - - -
31/12:00pm 25.5 ESE 16 24 1016.7 - 0.0 - Partly cloudy - - - - -
31/11:30am 25.3 SE 16 22 1017.1 - 0.0 - Partly cloudy - - - - -
31/11:07am 26.0 ESE 15 26 1017.3 - 0.0 - Partly cloudy - - - - -
31/11:00am 25.7 ESE 17 25 1017.3 - 0.0 - Partly cloudy - - - - -
31/10:30am 25.7 ESE 15 22 1017.5 - 0.0 - Partly cloudy - - - - -
31/10:01am 24.8 ESE 17 29 1017.8 - 0.0 - Partly cloudy - - - - -
31/10:00am 25.4 ESE 16 23 1017.8 - 0.0 - Partly cloudy - - - - -
31/09:30am 24.6 ESE 13 18 1017.7 - 0.0 - Partly cloudy - - - - -
31/09:00am 24.5 ESE 11 19 1017.4 - 0.0 - Partly cloudy - - - - -
31/08:30am 23.7 SE 13 17 1017.4 - 0.0 - Partly cloudy - - - - -
31/08:00am 23.1 ESE 8 12 1017.0 - 0.0 - Partly cloudy - - - - -
31/07:30am 21.2 SE 5 9 1016.8 - 0.0 - - - - - - -
31/07:00am 20.6 S 5 7 1016.6 - 0.0 - Partly cloudy - - - - -
31/06:30am 20.8 SE 6 9 1016.3 - 0.0 - - - - - - -
31/06:00am 20.1 SE 4 5 1016.1 - 0.0 - - - - - - -
31/05:30am 21.4 SE 6 8 1016.1 - 0.0 - - - - - - -
31/05:00am 21.3 SE 6 8 1016.0 - 0.0 - Partly cloudy - - - - -
31/04:30am 21.4 ESE 7 8 1016.2 - 0.0 - Partly cloudy - - - - -
31/04:00am 21.4 SE 6 9 1016.5 - 0.0 - Partly cloudy - - - - -
31/03:30am 21.8 SE 8 12 1016.6 - 0.0 - Partly cloudy - - - - -
31/03:00am 21.9 SE 8 11 1016.7 - 0.0 - - - - - - -
31/02:30am 21.6 SE 5 8 1017.0 - 0.0 - Partly cloudy - - - - -
31/02:00am 21.6 SE 7 9 1017.2 - 0.0 - Partly cloudy - - - - -
31/01:30am 22.2 SE 7 11 1017.5 - 0.0 - Partly cloudy - - - - -
31/01:00am 22.6 ESE 9 14 1017.7 - 0.0 - Partly cloudy - - - - -
31/12:30am 22.6 ESE 10 13 1017.8 - 0.0 - Partly cloudy - - - - -
31/12:00am 22.2 SE 10 18 1017.9 - 0.0 - Partly cloudy - - - - -
 
Date/Time
EST
Temp

°C
Wind Pressure Rain
since 9am
mm
Weather Cloud Vis
km
Sea
Height
m
Swell
Dir
 
Speed
knots
Gust
knots
hPa Trend Height
m
Period
s
Dir
30/11:30pm 22.7 ESE 9 14 1018.1 - 0.0 - Partly cloudy - - - - -
30/11:00pm 23.1 SE 12 17 1018.2 - 0.0 - Partly cloudy - - - - -
30/10:30pm 23.3 SE 13 22 1018.1 - 0.0 - Partly cloudy - - - - -
30/10:00pm 23.4 SE 13 18 1018.0 - 0.0 - Partly cloudy - - - - -
30/09:30pm 23.2 SE 12 16 1017.9 - 0.0 - Partly cloudy - - - - -
30/09:00pm 23.3 SE 13 18 1017.6 - 0.0 - Partly cloudy - - - - -
30/08:30pm 23.3 SE 14 19 1017.4 - 0.0 - Partly cloudy - - - - -
30/08:00pm 23.5 SE 11 18 1017.1 - 0.0 - Partly cloudy - - - - -
30/07:30pm 23.5 SE 13 21 1016.8 - 0.0 - Cloudy - - - - -
30/07:00pm 23.4 SE 10 15 1016.5 - 0.0 - Partly cloudy - - - - -
30/06:30pm 23.7 SE 13 18 1016.5 - 0.0 - Cloudy - - - - -
30/06:00pm 24.0 SE 14 21 1016.1 - 0.0 - Partly cloudy - - - - -
30/05:30pm 24.4 SE 15 25 1016.1 - 0.0 - Partly cloudy - - - - -
30/05:12pm 24.5 SE 15 25 1015.9 - 0.0 - Partly cloudy - - - - -
30/05:00pm 24.6 SE 14 22 1015.9 - 0.0 - Partly cloudy - - - - -
30/04:30pm 24.8 SE 18 22 1015.6 - 0.0 - Partly cloudy - - - - -
30/04:04pm 25.0 SE 17 27 1015.5 - 0.0 - Partly cloudy - - - - -
30/04:00pm 25.0 SE 16 23 1015.5 - 0.0 - Partly cloudy - - - - -
30/03:31pm 25.2 SE 16 26 1015.6 - 0.0 - Partly cloudy - - - - -
30/03:30pm 25.3 SE 17 26 1015.7 - 0.0 - Partly cloudy - - - - -
30/03:16pm 25.3 SE 16 26 1015.6 - 0.0 - Partly cloudy - - - - -
30/03:00pm 25.4 SE 19 26 1015.6 - 0.0 Fine Mostly cloudy 18 - - - -
30/02:46pm 25.4 SE 17 27 1015.8 - 0.0 - Partly cloudy - - - - -
30/02:30pm 25.9 SE 18 27 1015.8 - 0.0 - Partly cloudy - - - - -
30/02:28pm 26.2 SE 16 27 1015.9 - 0.0 - Partly cloudy - - - - -
30/02:00pm 25.0 SE 17 22 1016.1 - 0.0 - Partly cloudy - - - - -
30/01:30pm 25.9 SE 17 23 1016.4 - 0.0 - Partly cloudy - - - - -
30/01:08pm 26.1 SE 18 29 1016.8 - 0.0 - Partly cloudy - - - - -
30/01:00pm 26.0 SE 19 25 1016.8 - 0.0 - Partly cloudy - - - - -
30/12:30pm 25.9 SE 18 25 1017.1 - 0.0 - Partly cloudy - - - - -
30/12:00pm 25.8 ESE 14 21 1017.2 - 0.0 - Partly cloudy - - - - -
30/11:30am 25.6 ESE 15 25 1017.4 - 0.0 - Partly cloudy - - - - -
30/11:11am 25.6 ESE 16 26 1017.6 - 0.0 - Partly cloudy - - - - -
30/11:00am 25.3 ESE 17 26 1017.8 - 0.0 - Partly cloudy - - - - -
30/10:58am 25.0 ESE 16 26 1017.7 - 0.0 - Partly cloudy - - - - -
30/10:30am 24.6 ESE 15 22 1017.9 - 0.0 - Partly cloudy - - - - -
30/10:00am 24.6 ESE 14 19 1017.9 - 0.0 - Partly cloudy - - - - -
30/09:30am 23.9 ESE 14 23 1017.9 - 0.0 - Partly cloudy - - - - -
30/09:04am 22.9 ESE 8 11 1017.7 - 0.0 - Partly cloudy - - - - -
30/09:00am 22.9 ESE 8 13 1017.6 - 21.0 Fine Cloudy 12 - - - -
30/08:43am 22.0 E 6 8 1017.8 - 21.0 - Partly cloudy - - - - -
30/08:39am 21.9 E 8 12 1017.7 - 21.0 - Partly cloudy - - - - -
30/08:30am 22.1 ESE 11 19 1017.7 - 21.0 - Partly cloudy - - - - -
30/08:26am 22.1 SE 11 19 1017.5 - 20.4 - Partly cloudy - - - - -
30/08:25am 22.2 SE 11 19 1017.5 - 20.4 - Partly cloudy - - - - -
30/08:11am 22.5 SE 12 17 1017.4 - 20.2 - Partly cloudy - - - - -
30/08:06am 22.5 SE 13 20 1017.4 - 20.2 - Partly cloudy - - - - -
30/08:00am 22.5 SE 14 20 1017.3 - 20.2 - Partly cloudy - - - - -
30/07:30am 22.1 SE 11 15 1016.9 - 20.2 - Partly cloudy - - - - -
30/07:07am 22.1 SE 10 20 1016.8 - 20.2 - Partly cloudy - - - - -
30/07:00am 22.0 SE 7 11 1016.6 - 20.2 - Partly cloudy - - - - -
30/06:42am 21.9 SE 8 10 1016.5 - 20.2 - Partly cloudy - - - - -
30/06:30am 21.8 SE 10 15 1016.5 - 20.2 - Partly cloudy - - - - -
30/06:08am 21.2 SE 5 6 1016.2 - 20.2 - Partly cloudy - - - - -
30/06:00am 21.0 SE 5 7 1016.0 - 20.2 - Partly cloudy - - - - -
30/05:30am 21.1 SE 8 12 1015.9 - 20.2 - Partly cloudy - - - - -
30/05:00am 21.7 SE 13 23 1016.0 - 20.2 - Partly cloudy - - - - -
30/04:38am 21.6 SE 8 12 1016.0 - 20.2 - Partly cloudy - - - - -
30/04:30am 21.5 SE 7 11 1016.1 - 20.2 - Partly cloudy - - - - -
30/04:24am 21.5 SE 8 11 1016.1 - 20.2 - Partly cloudy - - - - -

Other Formats:

Comma delimited format used in spreadsheet applications
http://www.bom.gov.au/fwo/IDQ60701/IDQ60701.94186.axf

JavaScript Object Notation format (JSON) in row-major order
http://www.bom.gov.au/fwo/IDQ60701/IDQ60701.94186.json